Archival Weather

Tokyo Intl

Tokyo Intl, Japan (RJTT)

Report from: Friday, June 24, 2022 7:41 AM JST
Current time: Tuesday, August 16, 2022 10:58 AM JST

Current weather
Weather history
Weather forecast

Temperature27.0°C (80.6°F)
Heat index30.1°C (86.2°F)
Dew point24.0°C (75.2°F)
Winds 17 kts (8.7 m/s, 19.6 mph) South-Southwest (210°)
Wind gusts 27 kts (13.9 m/s, 31.1 mph)
Visibility6.2 mi. (10 km)
Clouds Ceiling: Broken clouds 0 ft. (0 m)
Few clouds 500 ft. (152 m)
Scattered clouds 800 ft. (244 m)
Altimeter29.71 in.Hg (1006 mB)
Relative humidity84 %
Density altitude2,028 ft. (618 m)
Remarks Special weather observation
Flight conditions Low Instrument Meteorological Conditions
Raw dataSPJP31 KWBC 232257 SPECI RJTT 232241Z 21017G27KT 9999 FEW005 SCT008 BKN/// 27/24 Q1006 RMK 1ST005 3ST008 A2973
An error has occurred. This application may no longer respond until reloaded. Reload 🗙